Border, Minnesota
Current Conditions -  °F | °C
As of 10:53 PM on Friday 21 Nov 2014 (Local Time) from KBDE Reporting Station
Clear Clear  
Wind Chill: 18°   Ceiling: Unl
Heat Index: 28°   Visibility: 10mi
Dew Point: 22°   Wind: 12mph
Humidity: 78%   Direction: 220°SW
Pressure: 29.55"   Gusts: NA
Location:  48.5595°N, 94.661°W
Report Text: KBDE 220453Z AUTO 22010KT 10SM CLR M02/M06 A2955 RMK AO2 SLP024 T10221056 TSNO
Loading
Personal Weather Stations






























Interactive Weather Map New forecast layout! Learn more

10-Day Weather Forecast

Advertisements
Track Severe Weather on mobile